sensor_id;sensor_type;location;lat;lon;timestamp;temperature;humidity
3876;DHT22;1953;51.222;6.624;2023-10-09T00:02:13;16.30;1.00
3876;DHT22;1953;51.222;6.624;2023-10-09T00:06:56;16.40;1.00
3876;DHT22;1953;51.222;6.624;2023-10-09T00:11:40;16.30;1.00
3876;DHT22;1953;51.222;6.624;2023-10-09T00:18:59;16.30;1.00
3876;DHT22;1953;51.222;6.624;2023-10-09T00:23:54;16.30;1.00
3876;DHT22;1953;51.222;6.624;2023-10-09T00:28:40;16.30;1.00
3876;DHT22;1953;51.222;6.624;2023-10-09T00:33:25;16.30;1.00
3876;DHT22;1953;51.222;6.624;2023-10-09T00:38:12;16.30;1.00
3876;DHT22;1953;51.222;6.624;2023-10-09T00:42:59;16.30;1.00
3876;DHT22;1953;51.222;6.624;2023-10-09T00:47:47;16.40;1.00
3876;DHT22;1953;51.222;6.624;2023-10-09T00:52:31;16.50;1.00
3876;DHT22;1953;51.222;6.624;2023-10-09T00:57:20;16.60;1.00
3876;DHT22;1953;51.222;6.624;2023-10-09T01:02:05;16.60;1.00
3876;DHT22;1953;51.222;6.624;2023-10-09T01:06:49;16.60;1.00
3876;DHT22;1953;51.222;6.624;2023-10-09T01:11:47;16.70;1.00
3876;DHT22;1953;51.222;6.624;2023-10-09T01:16:34;16.80;1.00
3876;DHT22;1953;51.222;6.624;2023-10-09T01:20:58;16.80;1.00
3876;DHT22;1953;51.222;6.624;2023-10-09T01:25:45;16.80;1.00
3876;DHT22;1953;51.222;6.624;2023-10-09T01:30:30;16.90;1.00
3876;DHT22;1953;51.222;6.624;2023-10-09T01:35:14;17.00;1.00
3876;DHT22;1953;51.222;6.624;2023-10-09T01:40:03;17.00;1.00
3876;DHT22;1953;51.222;6.624;2023-10-09T01:45:09;17.00;1.00
3876;DHT22;1953;51.222;6.624;2023-10-09T01:49:52;17.10;1.00
3876;DHT22;1953;51.222;6.624;2023-10-09T01:54:36;17.10;1.00
3876;DHT22;1953;51.222;6.624;2023-10-09T01:59:19;17.20;1.00
3876;DHT22;1953;51.222;6.624;2023-10-09T02:04:03;17.20;1.00
3876;DHT22;1953;51.222;6.624;2023-10-09T02:08:54;17.10;1.00
3876;DHT22;1953;51.222;6.624;2023-10-09T02:13:37;17.10;1.00
3876;DHT22;1953;51.222;6.624;2023-10-09T02:18:23;17.10;1.00
3876;DHT22;1953;51.222;6.624;2023-10-09T02:23:22;17.10;1.00
3876;DHT22;1953;51.222;6.624;2023-10-09T02:28:06;17.10;1.00
3876;DHT22;1953;51.222;6.624;2023-10-09T02:32:49;17.10;1.00
3876;DHT22;1953;51.222;6.624;2023-10-09T02:37:34;17.20;1.00
3876;DHT22;1953;51.222;6.624;2023-10-09T02:42:20;17.10;1.00
3876;DHT22;1953;51.222;6.624;2023-10-09T02:47:05;17.10;1.00
3876;DHT22;1953;51.222;6.624;2023-10-09T02:51:53;17.10;1.00
3876;DHT22;1953;51.222;6.624;2023-10-09T02:56:36;17.00;1.00
3876;DHT22;1953;51.222;6.624;2023-10-09T03:01:25;16.90;1.00
3876;DHT22;1953;51.222;6.624;2023-10-09T03:06:07;17.00;1.00
3876;DHT22;1953;51.222;6.624;2023-10-09T03:10:53;17.10;1.00
3876;DHT22;1953;51.222;6.624;2023-10-09T03:15:38;17.00;1.00
3876;DHT22;1953;51.222;6.624;2023-10-09T03:20:23;17.00;1.00
3876;DHT22;1953;51.222;6.624;2023-10-09T03:25:06;17.00;1.00
3876;DHT22;1953;51.222;6.624;2023-10-09T03:29:53;16.90;1.00
3876;DHT22;1953;51.222;6.624;2023-10-09T03:34:35;17.00;1.00
3876;DHT22;1953;51.222;6.624;2023-10-09T03:39:19;17.00;1.00
3876;DHT22;1953;51.222;6.624;2023-10-09T03:44:06;17.00;1.00
3876;DHT22;1953;51.222;6.624;2023-10-09T03:48:49;16.90;1.00
3876;DHT22;1953;51.222;6.624;2023-10-09T03:53:32;16.90;1.00
3876;DHT22;1953;51.222;6.624;2023-10-09T03:58:18;16.90;1.00
3876;DHT22;1953;51.222;6.624;2023-10-09T04:03:03;17.00;1.00
3876;DHT22;1953;51.222;6.624;2023-10-09T04:07:46;17.10;1.00
3876;DHT22;1953;51.222;6.624;2023-10-09T04:12:30;17.10;1.00
3876;DHT22;1953;51.222;6.624;2023-10-09T04:17:16;17.10;1.00
3876;DHT22;1953;51.222;6.624;2023-10-09T04:22:17;17.20;1.00
3876;DHT22;1953;51.222;6.624;2023-10-09T04:27:07;17.20;1.00
3876;DHT22;1953;51.222;6.624;2023-10-09T04:31:50;17.20;1.00
3876;DHT22;1953;51.222;6.624;2023-10-09T04:36:37;17.10;1.00
3876;DHT22;1953;51.222;6.624;2023-10-09T04:41:27;17.20;1.00
3876;DHT22;1953;51.222;6.624;2023-10-09T04:46:13;17.30;1.00
3876;DHT22;1953;51.222;6.624;2023-10-09T04:51:05;17.30;1.00
3876;DHT22;1953;51.222;6.624;2023-10-09T04:56:04;17.40;1.00
3876;DHT22;1953;51.222;6.624;2023-10-09T05:00:56;17.40;1.00
3876;DHT22;1953;51.222;6.624;2023-10-09T05:05:53;17.40;1.00
3876;DHT22;1953;51.222;6.624;2023-10-09T05:11:02;17.40;1.00
3876;DHT22;1953;51.222;6.624;2023-10-09T05:15:57;17.40;1.00
3876;DHT22;1953;51.222;6.624;2023-10-09T05:20:41;17.40;1.00
3876;DHT22;1953;51.222;6.624;2023-10-09T05:25:58;17.40;1.00
3876;DHT22;1953;51.222;6.624;2023-10-09T05:31:02;17.40;1.00
3876;DHT22;1953;51.222;6.624;2023-10-09T05:35:48;17.40;1.00
3876;DHT22;1953;51.222;6.624;2023-10-09T05:40:46;17.50;1.00
3876;DHT22;1953;51.222;6.624;2023-10-09T05:45:34;17.50;1.00
3876;DHT22;1953;51.222;6.624;2023-10-09T05:50:47;17.60;1.00
3876;DHT22;1953;51.222;6.624;2023-10-09T05:55:51;17.60;1.00
3876;DHT22;1953;51.222;6.624;2023-10-09T06:00:51;17.60;1.00
3876;DHT22;1953;51.222;6.624;2023-10-09T06:05:54;17.70;1.00
3876;DHT22;1953;51.222;6.624;2023-10-09T06:10:45;17.70;1.00
3876;DHT22;1953;51.222;6.624;2023-10-09T06:15:31;17.60;1.00
3876;DHT22;1953;51.222;6.624;2023-10-09T06:20:31;17.70;1.00
3876;DHT22;1953;51.222;6.624;2023-10-09T06:25:44;17.70;1.00
3876;DHT22;1953;51.222;6.624;2023-10-09T06:30:34;17.80;1.00
3876;DHT22;1953;51.222;6.624;2023-10-09T06:35:17;17.90;1.00
3876;DHT22;1953;51.222;6.624;2023-10-09T06:40:00;18.00;1.00
3876;DHT22;1953;51.222;6.624;2023-10-09T06:45:17;18.00;1.00
3876;DHT22;1953;51.222;6.624;2023-10-09T06:50:00;18.10;1.00
3876;DHT22;1953;51.222;6.624;2023-10-09T06:55:11;18.10;1.00
3876;DHT22;1953;51.222;6.624;2023-10-09T07:00:00;18.10;1.00
3876;DHT22;1953;51.222;6.624;2023-10-09T07:05:13;18.10;1.00
3876;DHT22;1953;51.222;6.624;2023-10-09T07:09:58;18.20;1.00
3876;DHT22;1953;51.222;6.624;2023-10-09T07:15:13;18.20;1.00
3876;DHT22;1953;51.222;6.624;2023-10-09T07:20:15;18.30;1.00
3876;DHT22;1953;51.222;6.624;2023-10-09T07:25:17;18.40;1.00
3876;DHT22;1953;51.222;6.624;2023-10-09T07:30:10;18.50;1.00
3876;DHT22;1953;51.222;6.624;2023-10-09T07:35:18;18.60;1.00
3876;DHT22;1953;51.222;6.624;2023-10-09T07:40:20;18.70;1.00
3876;DHT22;1953;51.222;6.624;2023-10-09T07:45:12;18.70;1.00
3876;DHT22;1953;51.222;6.624;2023-10-09T07:50:15;18.70;1.00
3876;DHT22;1953;51.222;6.624;2023-10-09T07:55:04;18.70;1.00
3876;DHT22;1953;51.222;6.624;2023-10-09T07:59:55;18.70;1.00
3876;DHT22;1953;51.222;6.624;2023-10-09T08:04:53;18.70;1.00
3876;DHT22;1953;51.222;6.624;2023-10-09T08:09:36;18.70;1.00
3876;DHT22;1953;51.222;6.624;2023-10-09T08:14:29;18.80;1.00
3876;DHT22;1953;51.222;6.624;2023-10-09T08:19:24;18.90;1.00
3876;DHT22;1953;51.222;6.624;2023-10-09T08:24:14;18.90;1.00
3876;DHT22;1953;51.222;6.624;2023-10-09T08:29:11;19.00;1.00
3876;DHT22;1953;51.222;6.624;2023-10-09T08:34:00;19.10;1.00
3876;DHT22;1953;51.222;6.624;2023-10-09T08:38:45;19.20;1.00
3876;DHT22;1953;51.222;6.624;2023-10-09T08:43:30;18.30;1.00
3876;DHT22;1953;51.222;6.624;2023-10-09T08:48:15;19.40;1.00
3876;DHT22;1953;51.222;6.624;2023-10-09T08:53:00;19.50;1.00
3876;DHT22;1953;51.222;6.624;2023-10-09T08:57:44;19.50;1.00
3876;DHT22;1953;51.222;6.624;2023-10-09T09:02:28;19.60;1.00
3876;DHT22;1953;51.222;6.624;2023-10-09T09:07:26;19.60;1.00
3876;DHT22;1953;51.222;6.624;2023-10-09T09:12:13;19.60;1.00
3876;DHT22;1953;51.222;6.624;2023-10-09T09:16:57;20.10;1.00
3876;DHT22;1953;51.222;6.624;2023-10-09T09:21:42;19.70;1.00
3876;DHT22;1953;51.222;6.624;2023-10-09T09:26:34;19.80;1.00
3876;DHT22;1953;51.222;6.624;2023-10-09T09:31:20;19.90;1.00
3876;DHT22;1953;51.222;6.624;2023-10-09T09:36:04;19.90;1.00
3876;DHT22;1953;51.222;6.624;2023-10-09T09:40:46;20.10;1.00
3876;DHT22;1953;51.222;6.624;2023-10-09T09:45:36;20.30;1.00
3876;DHT22;1953;51.222;6.624;2023-10-09T09:50:20;20.40;1.00
3876;DHT22;1953;51.222;6.624;2023-10-09T09:55:07;20.50;1.00
3876;DHT22;1953;51.222;6.624;2023-10-09T09:59:57;20.60;1.00
3876;DHT22;1953;51.222;6.624;2023-10-09T10:04:42;20.60;1.00
3876;DHT22;1953;51.222;6.624;2023-10-09T10:09:39;20.70;1.00
3876;DHT22;1953;51.222;6.624;2023-10-09T10:14:22;20.80;1.00
3876;DHT22;1953;51.222;6.624;2023-10-09T10:19:10;21.00;1.00
3876;DHT22;1953;51.222;6.624;2023-10-09T10:24:10;21.20;1.00
3876;DHT22;1953;51.222;6.624;2023-10-09T10:29:16;21.30;1.00
3876;DHT22;1953;51.222;6.624;2023-10-09T10:34:05;21.20;1.00
3876;DHT22;1953;51.222;6.624;2023-10-09T10:38:59;21.20;1.00
3876;DHT22;1953;51.222;6.624;2023-10-09T10:43:48;21.20;1.00
3876;DHT22;1953;51.222;6.624;2023-10-09T10:48:42;21.40;1.00
3876;DHT22;1953;51.222;6.624;2023-10-09T10:53:28;21.40;1.00
3876;DHT22;1953;51.222;6.624;2023-10-09T10:58:16;21.60;1.00
3876;DHT22;1953;51.222;6.624;2023-10-09T11:03:04;21.70;1.00
3876;DHT22;1953;51.222;6.624;2023-10-09T11:07:58;21.60;1.00
3876;DHT22;1953;51.222;6.624;2023-10-09T11:12:43;21.80;1.00
3876;DHT22;1953;51.222;6.624;2023-10-09T11:17:57;21.70;1.00
3876;DHT22;1953;51.222;6.624;2023-10-09T11:22:46;21.70;1.00
3876;DHT22;1953;51.222;6.624;2023-10-09T11:27:50;21.70;1.00
3876;DHT22;1953;51.222;6.624;2023-10-09T11:32:36;21.90;1.00
3876;DHT22;1953;51.222;6.624;2023-10-09T11:37:22;22.00;1.00
3876;DHT22;1953;51.222;6.624;2023-10-09T11:42:20;21.90;1.00
3876;DHT22;1953;51.222;6.624;2023-10-09T11:47:18;22.10;1.00
3876;DHT22;1953;51.222;6.624;2023-10-09T11:52:14;22.10;1.00
3876;DHT22;1953;51.222;6.624;2023-10-09T11:57:17;22.10;1.00
3876;DHT22;1953;51.222;6.624;2023-10-09T12:01:59;22.20;1.00
3876;DHT22;1953;51.222;6.624;2023-10-09T12:06:43;22.10;1.00
3876;DHT22;1953;51.222;6.624;2023-10-09T12:11:26;22.10;1.00
3876;DHT22;1953;51.222;6.624;2023-10-09T12:19:59;22.40;1.00
3876;DHT22;1953;51.222;6.624;2023-10-09T12:24:44;22.40;1.00
3876;DHT22;1953;51.222;6.624;2023-10-09T12:29:27;22.60;1.00
3876;DHT22;1953;51.222;6.624;2023-10-09T12:34:12;22.60;1.00
3876;DHT22;1953;51.222;6.624;2023-10-09T12:38:58;22.70;1.00
3876;DHT22;1953;51.222;6.624;2023-10-09T12:43:42;22.60;1.00
3876;DHT22;1953;51.222;6.624;2023-10-09T12:48:25;22.70;1.00
3876;DHT22;1953;51.222;6.624;2023-10-09T12:53:08;22.70;1.00
3876;DHT22;1953;51.222;6.624;2023-10-09T12:57:52;22.90;1.00
3876;DHT22;1953;51.222;6.624;2023-10-09T13:02:36;22.80;1.00
3876;DHT22;1953;51.222;6.624;2023-10-09T13:07:18;22.90;1.00
3876;DHT22;1953;51.222;6.624;2023-10-09T13:12:03;23.00;1.00
3876;DHT22;1953;51.222;6.624;2023-10-09T13:16:47;22.80;1.00
3876;DHT22;1953;51.222;6.624;2023-10-09T13:21:31;22.90;1.00
3876;DHT22;1953;51.222;6.624;2023-10-09T13:26:14;22.70;1.00
3876;DHT22;1953;51.222;6.624;2023-10-09T13:31:00;22.70;1.00
3876;DHT22;1953;51.222;6.624;2023-10-09T13:35:46;22.60;1.00
3876;DHT22;1953;51.222;6.624;2023-10-09T13:40:31;22.80;1.00
3876;DHT22;1953;51.222;6.624;2023-10-09T13:45:16;22.90;1.00
3876;DHT22;1953;51.222;6.624;2023-10-09T13:49:59;22.80;1.00
3876;DHT22;1953;51.222;6.624;2023-10-09T13:54:43;23.00;1.00
3876;DHT22;1953;51.222;6.624;2023-10-09T13:59:29;22.90;1.00
3876;DHT22;1953;51.222;6.624;2023-10-09T14:04:11;23.00;1.00
3876;DHT22;1953;51.222;6.624;2023-10-09T14:09:00;23.00;1.00
3876;DHT22;1953;51.222;6.624;2023-10-09T14:13:46;23.10;1.00
3876;DHT22;1953;51.222;6.624;2023-10-09T14:18:30;23.30;1.00
3876;DHT22;1953;51.222;6.624;2023-10-09T14:23:13;23.60;1.00
3876;DHT22;1953;51.222;6.624;2023-10-09T14:28:01;23.50;1.00
3876;DHT22;1953;51.222;6.624;2023-10-09T14:32:49;23.80;1.00
3876;DHT22;1953;51.222;6.624;2023-10-09T14:37:37;24.00;1.00
3876;DHT22;1953;51.222;6.624;2023-10-09T14:42:20;24.10;1.00
3876;DHT22;1953;51.222;6.624;2023-10-09T14:47:05;23.90;1.00
3876;DHT22;1953;51.222;6.624;2023-10-09T14:51:49;23.70;1.00
3876;DHT22;1953;51.222;6.624;2023-10-09T14:56:32;23.70;1.00
3876;DHT22;1953;51.222;6.624;2023-10-09T15:01:17;23.80;1.00
3876;DHT22;1953;51.222;6.624;2023-10-09T15:06:01;24.00;1.00
3876;DHT22;1953;51.222;6.624;2023-10-09T15:10:46;23.90;1.00
3876;DHT22;1953;51.222;6.624;2023-10-09T15:15:29;23.70;1.00
3876;DHT22;1953;51.222;6.624;2023-10-09T15:20:12;23.70;1.00
3876;DHT22;1953;51.222;6.624;2023-10-09T15:24:55;23.80;1.00
3876;DHT22;1953;51.222;6.624;2023-10-09T15:29:39;23.80;1.00
3876;DHT22;1953;51.222;6.624;2023-10-09T15:34:25;24.30;1.00
3876;DHT22;1953;51.222;6.624;2023-10-09T15:39:08;24.60;1.00
3876;DHT22;1953;51.222;6.624;2023-10-09T15:43:52;24.50;1.00
3876;DHT22;1953;51.222;6.624;2023-10-09T15:48:36;24.10;1.00
3876;DHT22;1953;51.222;6.624;2023-10-09T15:53:20;23.60;1.00
3876;DHT22;1953;51.222;6.624;2023-10-09T15:58:05;23.30;1.00
3876;DHT22;1953;51.222;6.624;2023-10-09T16:02:50;23.10;1.00
3876;DHT22;1953;51.222;6.624;2023-10-09T16:07:35;23.00;1.00
3876;DHT22;1953;51.222;6.624;2023-10-09T16:12:18;22.80;1.00
3876;DHT22;1953;51.222;6.624;2023-10-09T16:17:01;22.80;1.00
3876;DHT22;1953;51.222;6.624;2023-10-09T16:21:44;22.70;1.00
3876;DHT22;1953;51.222;6.624;2023-10-09T16:26:29;22.60;1.00
3876;DHT22;1953;51.222;6.624;2023-10-09T16:31:19;22.50;1.00
3876;DHT22;1953;51.222;6.624;2023-10-09T16:36:01;22.50;1.00
3876;DHT22;1953;51.222;6.624;2023-10-09T16:40:52;22.50;1.00
3876;DHT22;1953;51.222;6.624;2023-10-09T16:45:37;22.30;1.00
3876;DHT22;1953;51.222;6.624;2023-10-09T16:50:24;22.20;1.00
3876;DHT22;1953;51.222;6.624;2023-10-09T16:55:10;22.10;1.00
3876;DHT22;1953;51.222;6.624;2023-10-09T16:59:52;22.00;1.00
3876;DHT22;1953;51.222;6.624;2023-10-09T17:04:37;21.90;1.00
3876;DHT22;1953;51.222;6.624;2023-10-09T17:09:20;21.80;1.00
3876;DHT22;1953;51.222;6.624;2023-10-09T17:14:05;21.70;1.00
3876;DHT22;1953;51.222;6.624;2023-10-09T17:18:48;21.60;1.00
3876;DHT22;1953;51.222;6.624;2023-10-09T17:23:32;21.50;1.00
3876;DHT22;1953;51.222;6.624;2023-10-09T17:28:14;21.40;1.00
3876;DHT22;1953;51.222;6.624;2023-10-09T17:32:58;21.40;1.00
3876;DHT22;1953;51.222;6.624;2023-10-09T17:37:41;21.30;1.00
3876;DHT22;1953;51.222;6.624;2023-10-09T17:42:25;21.30;1.00
3876;DHT22;1953;51.222;6.624;2023-10-09T17:47:07;21.20;1.00
3876;DHT22;1953;51.222;6.624;2023-10-09T17:51:50;21.10;1.00
3876;DHT22;1953;51.222;6.624;2023-10-09T17:56:33;21.00;1.00
3876;DHT22;1953;51.222;6.624;2023-10-09T18:01:19;21.00;1.00
3876;DHT22;1953;51.222;6.624;2023-10-09T18:06:05;20.90;1.00
3876;DHT22;1953;51.222;6.624;2023-10-09T18:10:48;20.80;1.00
3876;DHT22;1953;51.222;6.624;2023-10-09T18:15:36;20.70;1.00
3876;DHT22;1953;51.222;6.624;2023-10-09T18:20:20;20.70;1.00
3876;DHT22;1953;51.222;6.624;2023-10-09T18:25:03;20.50;1.00
3876;DHT22;1953;51.222;6.624;2023-10-09T18:29:46;20.40;1.00
3876;DHT22;1953;51.222;6.624;2023-10-09T18:34:29;20.40;1.00
3876;DHT22;1953;51.222;6.624;2023-10-09T18:39:13;20.40;1.00
3876;DHT22;1953;51.222;6.624;2023-10-09T18:43:55;20.30;1.00
3876;DHT22;1953;51.222;6.624;2023-10-09T18:48:42;20.40;1.00
3876;DHT22;1953;51.222;6.624;2023-10-09T18:53:26;20.20;1.00
3876;DHT22;1953;51.222;6.624;2023-10-09T18:58:12;20.20;1.00
3876;DHT22;1953;51.222;6.624;2023-10-09T19:02:59;20.20;1.00
3876;DHT22;1953;51.222;6.624;2023-10-09T19:07:42;20.10;1.00
3876;DHT22;1953;51.222;6.624;2023-10-09T19:12:24;20.00;1.00
3876;DHT22;1953;51.222;6.624;2023-10-09T19:17:08;20.00;1.00
3876;DHT22;1953;51.222;6.624;2023-10-09T19:21:51;19.90;1.00
3876;DHT22;1953;51.222;6.624;2023-10-09T19:26:34;19.80;1.00
3876;DHT22;1953;51.222;6.624;2023-10-09T19:31:16;19.70;1.00
3876;DHT22;1953;51.222;6.624;2023-10-09T19:36:03;19.70;1.00
3876;DHT22;1953;51.222;6.624;2023-10-09T19:40:52;19.50;1.00
3876;DHT22;1953;51.222;6.624;2023-10-09T19:45:35;19.30;1.00
3876;DHT22;1953;51.222;6.624;2023-10-09T19:50:17;19.30;1.00
3876;DHT22;1953;51.222;6.624;2023-10-09T19:55:01;19.20;1.00
3876;DHT22;1953;51.222;6.624;2023-10-09T19:59:44;19.20;1.00
3876;DHT22;1953;51.222;6.624;2023-10-09T20:04:29;19.20;1.00
3876;DHT22;1953;51.222;6.624;2023-10-09T20:09:11;19.10;1.00
3876;DHT22;1953;51.222;6.624;2023-10-09T20:13:55;19.10;1.00
3876;DHT22;1953;51.222;6.624;2023-10-09T20:18:38;19.00;1.00
3876;DHT22;1953;51.222;6.624;2023-10-09T20:23:23;19.00;1.00
3876;DHT22;1953;51.222;6.624;2023-10-09T20:28:07;19.00;1.00
3876;DHT22;1953;51.222;6.624;2023-10-09T20:32:53;18.90;1.00
3876;DHT22;1953;51.222;6.624;2023-10-09T20:37:35;18.90;1.00
3876;DHT22;1953;51.222;6.624;2023-10-09T20:42:18;18.90;1.00
3876;DHT22;1953;51.222;6.624;2023-10-09T20:47:02;18.90;1.00
3876;DHT22;1953;51.222;6.624;2023-10-09T20:51:46;18.90;1.00
3876;DHT22;1953;51.222;6.624;2023-10-09T20:56:29;18.80;1.00
3876;DHT22;1953;51.222;6.624;2023-10-09T21:01:12;18.80;1.00
3876;DHT22;1953;51.222;6.624;2023-10-09T21:05:56;18.70;1.00
3876;DHT22;1953;51.222;6.624;2023-10-09T21:10:43;18.60;1.00
3876;DHT22;1953;51.222;6.624;2023-10-09T21:15:26;18.70;1.00
3876;DHT22;1953;51.222;6.624;2023-10-09T21:20:13;18.60;1.00
3876;DHT22;1953;51.222;6.624;2023-10-09T21:24:59;18.60;1.00
3876;DHT22;1953;51.222;6.624;2023-10-09T21:29:43;18.60;1.00
3876;DHT22;1953;51.222;6.624;2023-10-09T21:34:25;18.50;1.00
3876;DHT22;1953;51.222;6.624;2023-10-09T21:39:08;18.40;1.00
3876;DHT22;1953;51.222;6.624;2023-10-09T21:43:50;18.30;1.00
3876;DHT22;1953;51.222;6.624;2023-10-09T21:48:36;18.20;1.00
3876;DHT22;1953;51.222;6.624;2023-10-09T21:53:19;18.80;1.00
3876;DHT22;1953;51.222;6.624;2023-10-09T21:58:04;18.10;1.00
3876;DHT22;1953;51.222;6.624;2023-10-09T22:02:51;18.10;1.00
3876;DHT22;1953;51.222;6.624;2023-10-09T22:07:35;18.10;1.00
3876;DHT22;1953;51.222;6.624;2023-10-09T22:12:18;18.00;1.00
3876;DHT22;1953;51.222;6.624;2023-10-09T22:17:01;18.00;1.00
3876;DHT22;1953;51.222;6.624;2023-10-09T22:21:44;18.00;1.00
3876;DHT22;1953;51.222;6.624;2023-10-09T22:26:30;17.90;1.00
3876;DHT22;1953;51.222;6.624;2023-10-09T22:31:13;17.90;1.00
3876;DHT22;1953;51.222;6.624;2023-10-09T22:35:56;17.70;1.00
3876;DHT22;1953;51.222;6.624;2023-10-09T22:40:42;17.70;1.00
3876;DHT22;1953;51.222;6.624;2023-10-09T22:45:31;17.70;1.00
3876;DHT22;1953;51.222;6.624;2023-10-09T22:50:15;17.70;1.00
3876;DHT22;1953;51.222;6.624;2023-10-09T22:55:01;17.60;1.00
3876;DHT22;1953;51.222;6.624;2023-10-09T22:59:46;17.60;1.00
3876;DHT22;1953;51.222;6.624;2023-10-09T23:04:32;17.50;1.00
3876;DHT22;1953;51.222;6.624;2023-10-09T23:09:30;17.50;1.00
3876;DHT22;1953;51.222;6.624;2023-10-09T23:14:13;17.50;1.00
3876;DHT22;1953;51.222;6.624;2023-10-09T23:19:04;17.50;1.00
3876;DHT22;1953;51.222;6.624;2023-10-09T23:24:12;17.50;1.00
3876;DHT22;1953;51.222;6.624;2023-10-09T23:29:07;17.40;1.00
3876;DHT22;1953;51.222;6.624;2023-10-09T23:33:50;17.30;1.00
3876;DHT22;1953;51.222;6.624;2023-10-09T23:38:34;17.20;1.00
3876;DHT22;1953;51.222;6.624;2023-10-09T23:43:19;17.20;1.00
3876;DHT22;1953;51.222;6.624;2023-10-09T23:48:04;17.10;1.00
3876;DHT22;1953;51.222;6.624;2023-10-09T23:52:52;17.00;1.00
3876;DHT22;1953;51.222;6.624;2023-10-09T23:57:35;17.00;1.00
